createdAt,value
2022-11-29T00:01:35.287Z,111.20
2022-11-29T00:04:03.371Z,121.95
2022-11-29T00:06:33.255Z,131.30
2022-11-29T00:09:06.244Z,129.43
2022-11-29T00:11:53.599Z,141.40
2022-11-29T00:14:22.350Z,199.70
2022-11-29T00:16:53.976Z,127.68
2022-11-29T00:19:22.380Z,116.57
2022-11-29T00:21:50.192Z,172.75
2022-11-29T00:24:19.455Z,165.65
2022-11-29T00:26:47.340Z,338.13
2022-11-29T00:29:15.265Z,396.73
2022-11-29T00:31:43.365Z,305.80
2022-11-29T00:34:12.580Z,184.57
2022-11-29T00:36:41.058Z,173.40
2022-11-29T00:39:11.717Z,297.23
2022-11-29T00:41:41.169Z,220.57
2022-11-29T00:44:09.534Z,141.77
2022-11-29T00:46:37.804Z,146.98
2022-11-29T00:49:06.382Z,135.82
2022-11-29T00:51:34.492Z,140.95
2022-11-29T00:54:02.388Z,134.10
2022-11-29T00:56:30.118Z,135.68
2022-11-29T00:58:59.227Z,134.48
2022-11-29T01:01:27.098Z,212.35
2022-11-29T01:03:54.900Z,163.18
2022-11-29T01:06:22.711Z,224.25
2022-11-29T01:08:50.708Z,209.23
2022-11-29T01:11:20.967Z,198.38
2022-11-29T01:13:49.199Z,262.90
2022-11-29T01:16:18.770Z,420.20
2022-11-29T01:18:46.981Z,189.73
2022-11-29T01:21:17.873Z,198.00
2022-11-29T01:23:46.599Z,322.90
2022-11-29T01:26:20.346Z,219.95
2022-11-29T01:28:50.595Z,160.63
2022-11-29T01:31:22.055Z,178.07
2022-11-29T01:33:50.235Z,121.13
2022-11-29T01:36:17.999Z,117.50
2022-11-29T01:38:45.913Z,142.35
2022-11-29T01:41:16.927Z,100.32
2022-11-29T01:44:23.759Z,110.80
2022-11-29T01:46:54.413Z,104.28
2022-11-29T01:49:25.350Z,81.95
2022-11-29T01:51:57.103Z,86.18
2022-11-29T01:54:25.014Z,90.00
2022-11-29T01:56:53.843Z,87.00
2022-11-29T01:59:24.430Z,76.53
2022-11-29T02:01:54.727Z,77.93
2022-11-29T02:04:22.496Z,85.30
2022-11-29T02:06:50.379Z,78.45
2022-11-29T02:09:20.399Z,76.68
2022-11-29T02:12:14.589Z,87.47
2022-11-29T02:14:56.145Z,77.20
2022-11-29T02:17:34.235Z,69.07
2022-11-29T02:20:37.615Z,66.18
2022-11-29T02:23:24.565Z,65.10
2022-11-29T02:26:07.423Z,74.68
2022-11-29T02:28:55.969Z,65.38
2022-11-29T02:31:59.791Z,62.72
2022-11-29T02:34:53.090Z,66.97
2022-11-29T02:37:47.771Z,66.88
2022-11-29T02:40:32.608Z,60.88
2022-11-29T02:43:18.932Z,63.10
2022-11-29T02:46:05.256Z,66.82
2022-11-29T02:48:54.386Z,69.50
2022-11-29T02:54:00.868Z,55.38
2022-11-29T02:56:37.459Z,72.82
2022-11-29T02:59:11.110Z,67.35
2022-11-29T03:01:49.660Z,61.80
2022-11-29T03:04:26.722Z,62.83
2022-11-29T03:07:03.926Z,67.60
2022-11-29T03:12:17.312Z,60.95
2022-11-29T03:14:57.198Z,71.38
2022-11-29T03:17:33.409Z,75.35
2022-11-29T03:20:12.539Z,69.35
2022-11-29T03:22:48.918Z,72.47
2022-11-29T03:25:27.668Z,76.07
2022-11-29T03:28:02.820Z,74.38
2022-11-29T03:30:35.475Z,83.60
2022-11-29T03:33:10.763Z,84.82
2022-11-29T03:35:43.576Z,74.28
2022-11-29T03:38:20.231Z,83.25
2022-11-29T03:40:56.604Z,66.18
2022-11-29T03:43:31.563Z,78.22
2022-11-29T03:46:05.279Z,68.10
2022-11-29T03:48:38.715Z,71.50
2022-11-29T03:51:13.889Z,93.75
2022-11-29T03:53:50.046Z,119.53
2022-11-29T03:56:29.115Z,85.65
2022-11-29T03:59:11.251Z,71.78
2022-11-29T04:02:00.772Z,67.18
2022-11-29T04:05:03.955Z,70.25
2022-11-29T04:07:46.229Z,98.97
2022-11-29T04:10:27.076Z,70.25
2022-11-29T04:13:35.469Z,67.38
2022-11-29T04:16:27.868Z,62.90
2022-11-29T04:19:27.644Z,58.40
2022-11-29T04:22:44.424Z,80.00
2022-11-29T04:25:35.492Z,74.85
2022-11-29T04:28:21.339Z,82.80
2022-11-29T04:30:57.722Z,53.50
2022-11-29T04:34:04.305Z,60.08
2022-11-29T04:36:57.212Z,117.38
2022-11-29T04:39:37.457Z,50.75
2022-11-29T04:42:38.288Z,234.65
2022-11-29T04:45:40.852Z,191.10
2022-11-29T04:48:35.840Z,78.93
2022-11-29T04:51:18.303Z,71.95
2022-11-29T04:53:56.673Z,102.88
2022-11-29T04:56:32.171Z,67.15
2022-11-29T04:59:09.276Z,72.60
2022-11-29T05:04:22.147Z,99.28
2022-11-29T05:07:00.911Z,69.57
2022-11-29T05:09:38.018Z,69.88
2022-11-29T05:15:02.665Z,121.65
2022-11-29T05:17:46.532Z,72.10
2022-11-29T05:20:27.370Z,64.47
2022-11-29T05:23:12.917Z,66.82
2022-11-29T05:25:47.064Z,113.40
2022-11-29T05:28:26.110Z,71.75
2022-11-29T05:31:25.887Z,69.68
2022-11-29T05:34:14.837Z,68.28
2022-11-29T05:36:51.084Z,85.07
2022-11-29T05:39:38.360Z,64.07
2022-11-29T05:42:47.567Z,69.30
2022-11-29T05:45:23.913Z,62.47
2022-11-29T05:48:00.043Z,55.63
2022-11-29T05:50:34.410Z,52.55
2022-11-29T05:53:17.813Z,57.72
2022-11-29T05:55:55.927Z,55.05
2022-11-29T05:58:30.926Z,45.88
2022-11-29T06:01:04.632Z,55.08
2022-11-29T06:03:38.146Z,55.45
2022-11-29T06:06:15.224Z,57.83
2022-11-29T06:08:51.828Z,47.75
2022-11-29T06:11:25.761Z,50.70
2022-11-29T06:14:05.931Z,42.80
2022-11-29T06:16:43.718Z,55.10
2022-11-29T06:19:53.012Z,47.08
2022-11-29T06:22:40.987Z,40.38
2022-11-29T06:25:24.534Z,45.08
2022-11-29T06:28:09.040Z,49.53
2022-11-29T06:30:47.079Z,54.92
2022-11-29T06:33:22.840Z,86.63
2022-11-29T06:36:08.705Z,98.07
2022-11-29T06:38:36.904Z,42.70
2022-11-29T06:41:05.120Z,67.78
2022-11-29T06:43:33.619Z,48.85
2022-11-29T06:46:11.015Z,51.08
2022-11-29T06:48:46.494Z,41.00
2022-11-29T06:51:24.815Z,79.35
2022-11-29T06:54:00.875Z,69.22
2022-11-29T06:56:42.019Z,50.63
2022-11-29T06:59:21.900Z,49.55
2022-11-29T07:01:58.644Z,43.55
2022-11-29T07:04:46.524Z,125.10
2022-11-29T07:07:21.011Z,151.10
2022-11-29T07:09:51.939Z,78.45
2022-11-29T07:12:20.521Z,45.83
2022-11-29T07:14:48.793Z,68.15
2022-11-29T07:17:25.832Z,77.82
2022-11-29T07:20:04.081Z,46.30
2022-11-29T07:22:50.349Z,45.00
2022-11-29T07:25:26.295Z,49.03
2022-11-29T07:28:02.684Z,37.90
2022-11-29T07:30:39.531Z,39.95
2022-11-29T07:33:17.164Z,38.45
2022-11-29T07:35:51.476Z,36.95
2022-11-29T07:38:30.411Z,39.00
2022-11-29T07:41:01.825Z,33.03
2022-11-29T07:43:42.549Z,37.10
2022-11-29T07:46:10.558Z,32.15
2022-11-29T07:48:38.274Z,30.55
2022-11-29T07:51:06.224Z,35.50
2022-11-29T07:53:42.295Z,33.90
2022-11-29T07:56:10.377Z,42.13
2022-11-29T07:58:38.187Z,38.45
2022-11-29T08:01:06.360Z,34.53
2022-11-29T08:03:35.463Z,39.40
2022-11-29T08:06:03.838Z,42.80
2022-11-29T08:08:31.550Z,42.22
2022-11-29T08:11:00.620Z,29.02
2022-11-29T08:13:28.419Z,31.60
2022-11-29T08:15:56.135Z,29.75
2022-11-29T08:18:23.922Z,33.97
2022-11-29T08:20:51.644Z,35.00
2022-11-29T08:23:19.922Z,33.53
2022-11-29T08:25:48.443Z,33.45
2022-11-29T08:28:17.576Z,28.60
2022-11-29T08:30:45.386Z,30.50
2022-11-29T08:33:13.139Z,37.63
2022-11-29T08:35:42.112Z,30.58
2022-11-29T08:38:09.975Z,32.35
2022-11-29T08:40:37.715Z,29.52
2022-11-29T08:43:05.442Z,35.50
2022-11-29T08:45:34.543Z,33.65
2022-11-29T08:48:02.276Z,32.88
2022-11-29T08:50:30.053Z,31.35
2022-11-29T08:53:16.929Z,30.98
2022-11-29T08:55:46.511Z,25.73
2022-11-29T08:58:15.984Z,31.23
2022-11-29T09:00:47.008Z,22.02
2022-11-29T09:03:32.307Z,26.75
2022-11-29T09:06:00.101Z,25.60
2022-11-29T09:08:27.847Z,28.40
2022-11-29T09:10:55.633Z,31.83
2022-11-29T09:13:23.456Z,29.63
2022-11-29T09:15:52.659Z,30.45
2022-11-29T09:18:20.472Z,29.50
2022-11-29T09:20:48.228Z,28.92
2022-11-29T09:23:16.031Z,30.75
2022-11-29T09:25:49.650Z,32.42
2022-11-29T09:28:17.427Z,31.50
2022-11-29T09:30:45.206Z,31.42
2022-11-29T09:33:14.343Z,33.28
2022-11-29T09:35:42.447Z,33.22
2022-11-29T09:38:12.338Z,34.88
2022-11-29T09:40:47.289Z,31.88
2022-11-29T09:43:24.800Z,29.67
2022-11-29T09:46:00.743Z,30.27
2022-11-29T09:48:46.022Z,30.08
2022-11-29T09:51:24.595Z,26.90
2022-11-29T09:54:12.131Z,24.85
2022-11-29T09:56:43.395Z,28.48
2022-11-29T09:59:14.481Z,28.20
2022-11-29T10:04:19.356Z,28.27
2022-11-29T10:06:55.578Z,26.08
2022-11-29T10:09:30.834Z,25.50
2022-11-29T10:12:16.560Z,25.13
2022-11-29T10:17:26.784Z,30.48
2022-11-29T10:20:01.440Z,26.55
2022-11-29T10:22:40.761Z,23.60
2022-11-29T10:25:11.440Z,23.63
2022-11-29T10:27:41.601Z,25.27
2022-11-29T10:30:15.122Z,24.23
2022-11-29T10:32:45.220Z,26.75
2022-11-29T10:35:16.252Z,25.10
2022-11-29T10:38:01.434Z,25.52
2022-11-29T10:40:36.600Z,27.00
2022-11-29T10:43:04.924Z,22.45
2022-11-29T10:45:37.699Z,22.25
2022-11-29T10:48:08.961Z,23.27
2022-11-29T10:53:09.117Z,25.90
2022-11-29T10:55:41.465Z,19.23
2022-11-29T10:58:15.967Z,21.35
2022-11-29T11:00:53.475Z,20.83
2022-11-29T11:03:33.204Z,24.92
2022-11-29T11:06:06.612Z,21.80
2022-11-29T11:08:35.600Z,21.95
2022-11-29T11:11:05.907Z,25.15
2022-11-29T11:13:33.775Z,24.58
2022-11-29T11:16:10.738Z,21.42
2022-11-29T11:18:38.923Z,22.20
2022-11-29T11:21:12.627Z,24.05
2022-11-29T11:23:53.842Z,20.17
2022-11-29T11:26:22.495Z,25.42
2022-11-29T11:28:54.179Z,23.50
2022-11-29T11:31:32.039Z,22.92
2022-11-29T11:34:24.863Z,25.95
2022-11-29T11:36:54.399Z,23.25
2022-11-29T11:39:23.552Z,22.45
2022-11-29T11:42:10.749Z,25.13
2022-11-29T11:44:49.205Z,23.90
2022-11-29T11:47:21.215Z,22.17
2022-11-29T11:49:51.337Z,21.02
2022-11-29T11:52:24.191Z,22.00
2022-11-29T11:54:55.217Z,20.85
2022-11-29T11:57:24.792Z,24.15
2022-11-29T11:59:54.695Z,27.45
2022-11-29T12:02:27.774Z,23.63
2022-11-29T12:04:58.291Z,23.45
2022-11-29T12:08:06.111Z,21.75
2022-11-29T12:10:25.426Z,23.55
2022-11-29T12:12:54.419Z,23.77
2022-11-29T12:15:26.825Z,20.02
2022-11-29T12:18:02.869Z,26.92
2022-11-29T12:20:35.661Z,23.67
2022-11-29T12:23:28.201Z,20.13
2022-11-29T12:26:00.468Z,28.05
2022-11-29T12:28:33.392Z,23.60
2022-11-29T12:31:12.397Z,22.77
2022-11-29T12:33:47.528Z,30.70
2022-11-29T12:36:24.713Z,23.92
2022-11-29T12:39:04.755Z,22.90
2022-11-29T12:41:42.704Z,23.23
2022-11-29T12:44:25.509Z,23.58
2022-11-29T12:50:01.288Z,26.42
2022-11-29T12:52:43.062Z,25.30
2022-11-29T12:55:21.511Z,22.85
2022-11-29T12:57:59.400Z,21.00
2022-11-29T13:00:33.932Z,22.52
2022-11-29T13:03:09.375Z,23.05
2022-11-29T13:05:51.989Z,23.08
2022-11-29T13:08:42.054Z,22.95
2022-11-29T13:11:18.541Z,21.73
2022-11-29T13:13:51.005Z,22.48
2022-11-29T13:16:36.016Z,22.67
2022-11-29T13:19:12.239Z,22.50
2022-11-29T13:21:47.344Z,23.67
2022-11-29T13:24:23.521Z,22.73
2022-11-29T13:26:53.571Z,24.65
2022-11-29T13:29:21.920Z,19.50
2022-11-29T13:31:50.753Z,21.05
2022-11-29T13:34:23.660Z,21.70
2022-11-29T13:37:05.831Z,24.33
2022-11-29T13:39:50.930Z,24.95
2022-11-29T13:42:24.491Z,21.73
2022-11-29T13:44:59.695Z,24.48
2022-11-29T13:47:27.673Z,24.13
2022-11-29T13:49:58.539Z,22.85
2022-11-29T13:52:33.490Z,22.48
2022-11-29T13:55:29.076Z,22.38
2022-11-29T13:58:20.179Z,21.80
2022-11-29T14:00:52.674Z,19.88
2022-11-29T14:03:22.896Z,22.48
2022-11-29T14:05:53.021Z,20.33
2022-11-29T14:08:42.198Z,20.73
2022-11-29T14:11:23.944Z,20.95
2022-11-29T14:13:59.194Z,21.40
2022-11-29T14:16:33.486Z,17.50
2022-11-29T14:19:21.996Z,19.80
2022-11-29T14:22:30.314Z,20.95
2022-11-29T14:25:01.571Z,21.85
2022-11-29T14:27:59.343Z,19.80
2022-11-29T14:30:40.505Z,19.88
2022-11-29T14:33:25.311Z,19.50
2022-11-29T14:36:03.296Z,19.38
2022-11-29T14:38:38.930Z,15.18
2022-11-29T14:41:20.518Z,18.02
2022-11-29T14:43:48.464Z,21.33
2022-11-29T14:46:29.657Z,19.80
2022-11-29T14:49:02.999Z,19.73
2022-11-29T14:51:32.630Z,21.55
2022-11-29T14:54:08.970Z,21.08
2022-11-29T14:56:42.244Z,24.23
2022-11-29T14:59:49.160Z,25.67
2022-11-29T15:02:33.384Z,21.25
2022-11-29T15:05:14.063Z,22.45
2022-11-29T15:07:46.027Z,23.33
2022-11-29T15:10:20.469Z,19.85
2022-11-29T15:12:50.248Z,22.15
2022-11-29T15:15:32.910Z,23.48
2022-11-29T15:18:20.644Z,25.83
2022-11-29T15:21:01.401Z,28.17
2022-11-29T15:23:29.226Z,27.05
2022-11-29T15:26:01.523Z,25.33
2022-11-29T15:28:30.755Z,26.73
2022-11-29T15:31:05.166Z,23.85
2022-11-29T15:33:35.649Z,25.48
2022-11-29T15:36:07.476Z,23.42
2022-11-29T15:38:44.031Z,24.15
2022-11-29T15:41:23.278Z,25.27
2022-11-29T15:43:54.574Z,29.23
2022-11-29T15:46:26.803Z,26.80
2022-11-29T15:49:16.591Z,28.35
2022-11-29T15:51:46.643Z,27.98
2022-11-29T15:54:18.718Z,25.73
2022-11-29T15:56:51.891Z,26.13
2022-11-29T15:59:31.019Z,29.90
2022-11-29T16:02:02.610Z,27.95
2022-11-29T16:04:32.713Z,26.67
2022-11-29T16:07:00.738Z,30.55
2022-11-29T16:09:35.561Z,27.52
2022-11-29T16:12:04.124Z,26.73
2022-11-29T16:14:32.097Z,28.00
2022-11-29T16:17:03.277Z,22.13
2022-11-29T16:19:34.819Z,27.48
2022-11-29T16:22:09.817Z,26.58
2022-11-29T16:24:38.961Z,22.77
2022-11-29T16:27:08.532Z,25.08
2022-11-29T16:29:39.249Z,25.02
2022-11-29T16:32:22.858Z,27.65
2022-11-29T16:34:52.221Z,27.45
2022-11-29T16:37:23.128Z,24.92
2022-11-29T16:39:52.780Z,25.60
2022-11-29T16:42:25.934Z,26.80
2022-11-29T16:45:30.080Z,27.08
2022-11-29T16:47:59.623Z,30.83
2022-11-29T16:50:30.735Z,30.10
2022-11-29T16:53:36.433Z,29.27
2022-11-29T16:56:05.175Z,30.55
2022-11-29T16:58:37.567Z,30.95
2022-11-29T17:01:17.595Z,28.52
2022-11-29T17:03:45.683Z,31.60
2022-11-29T17:06:16.184Z,27.77
2022-11-29T17:08:44.063Z,26.70
2022-11-29T17:11:12.467Z,28.70
2022-11-29T17:13:40.596Z,28.98
2022-11-29T17:16:11.526Z,29.95
2022-11-29T17:18:41.016Z,29.85
2022-11-29T17:21:17.038Z,30.90
2022-11-29T17:23:46.234Z,28.55
2022-11-29T17:26:15.401Z,29.75
2022-11-29T17:28:43.501Z,27.17
2022-11-29T17:31:12.278Z,26.13
2022-11-29T17:33:40.399Z,28.15
2022-11-29T17:36:10.610Z,25.73
2022-11-29T17:38:39.302Z,28.20
2022-11-29T17:41:09.474Z,33.35
2022-11-29T17:43:37.544Z,31.50
2022-11-29T17:46:09.499Z,29.58
2022-11-29T17:48:38.451Z,26.45
2022-11-29T17:51:28.863Z,24.85
2022-11-29T17:53:55.157Z,25.48
2022-11-29T17:56:25.959Z,25.33
2022-11-29T17:58:55.120Z,24.63
2022-11-29T18:01:25.065Z,25.13
2022-11-29T18:03:54.738Z,22.10
2022-11-29T18:06:25.448Z,23.67
2022-11-29T18:08:55.581Z,23.70
2022-11-29T18:11:26.686Z,24.77
2022-11-29T18:16:25.747Z,24.35
2022-11-29T18:18:56.213Z,23.35
2022-11-29T18:21:24.195Z,22.63
2022-11-29T18:23:51.960Z,23.58
2022-11-29T18:26:21.005Z,25.35
2022-11-29T18:28:50.112Z,20.92
2022-11-29T18:31:19.993Z,20.30
2022-11-29T18:33:49.690Z,23.83
2022-11-29T18:36:20.139Z,20.48
2022-11-29T18:38:48.932Z,21.55
2022-11-29T18:41:19.033Z,20.13
2022-11-29T18:43:47.935Z,22.75
2022-11-29T18:46:19.090Z,23.00
2022-11-29T18:48:48.014Z,22.02
2022-11-29T18:51:17.623Z,21.42
2022-11-29T18:53:46.298Z,23.17
2022-11-29T18:56:16.364Z,22.60
2022-11-29T18:58:44.725Z,21.25
2022-11-29T19:01:14.384Z,21.00
2022-11-29T19:03:46.042Z,20.50
2022-11-29T19:06:15.868Z,23.25
2022-11-29T19:08:44.085Z,23.02
2022-11-29T19:11:13.971Z,21.70
2022-11-29T19:13:42.430Z,21.77
2022-11-29T19:16:13.940Z,22.17
2022-11-29T19:18:43.663Z,22.30
2022-11-29T19:21:13.359Z,19.77
2022-11-29T19:23:42.130Z,22.02
2022-11-29T19:26:12.218Z,20.52
2022-11-29T19:28:43.387Z,21.55
2022-11-29T19:33:41.512Z,18.65
2022-11-29T19:36:13.378Z,20.10
2022-11-29T19:38:41.563Z,20.30
2022-11-29T19:41:10.285Z,18.73
2022-11-29T19:43:38.590Z,16.83
2022-11-29T19:46:10.754Z,18.85
2022-11-29T19:48:39.147Z,17.35
2022-11-29T19:51:07.997Z,19.08
2022-11-29T19:53:37.429Z,20.88
2022-11-29T19:56:05.980Z,19.00
2022-11-29T19:58:34.092Z,18.73
2022-11-29T20:01:06.588Z,20.05
2022-11-29T20:03:34.976Z,17.83
2022-11-29T20:06:03.120Z,15.90
2022-11-29T20:08:31.198Z,15.48
2022-11-29T20:11:07.189Z,16.92
2022-11-29T20:13:34.958Z,17.17
2022-11-29T20:16:03.625Z,18.50
2022-11-29T20:18:32.644Z,16.42
2022-11-29T20:21:05.873Z,18.90
2022-11-29T20:23:33.851Z,14.45
2022-11-29T20:26:02.262Z,17.30
2022-11-29T20:28:31.352Z,17.38
2022-11-29T20:31:05.864Z,15.50
2022-11-29T20:33:33.923Z,16.30
2022-11-29T20:36:13.639Z,14.18
2022-11-29T20:38:47.179Z,16.90
2022-11-29T20:41:23.761Z,16.52
2022-11-29T20:43:57.251Z,16.27
2022-11-29T20:46:25.925Z,15.57
2022-11-29T20:48:54.719Z,18.95
2022-11-29T20:51:26.181Z,16.75
2022-11-29T20:53:53.990Z,16.85
2022-11-29T20:56:21.773Z,15.10
2022-11-29T20:58:49.487Z,16.48
2022-11-29T21:01:18.692Z,16.48
2022-11-29T21:03:46.703Z,18.05
2022-11-29T21:06:14.437Z,23.67
2022-11-29T21:08:42.786Z,21.38
2022-11-29T21:11:11.567Z,15.25
2022-11-29T21:13:40.053Z,15.38
2022-11-29T21:16:08.936Z,16.20
2022-11-29T21:18:39.916Z,14.05
2022-11-29T21:21:17.682Z,15.73
2022-11-29T21:23:55.180Z,15.32
2022-11-29T21:26:27.737Z,17.10
2022-11-29T21:29:06.930Z,16.15
2022-11-29T21:31:35.257Z,17.98
2022-11-29T21:34:04.449Z,16.73
2022-11-29T21:36:32.199Z,15.38
2022-11-29T21:39:04.809Z,16.77
2022-11-29T21:41:33.072Z,17.25
2022-11-29T21:44:08.589Z,19.80
2022-11-29T21:46:36.702Z,15.73
2022-11-29T21:49:06.412Z,18.33
2022-11-29T21:51:34.216Z,17.52
2022-11-29T21:54:02.273Z,16.00
2022-11-29T21:56:30.004Z,18.95
2022-11-29T21:58:57.795Z,17.42
2022-11-29T22:01:27.194Z,18.17
2022-11-29T22:03:55.553Z,23.38
2022-11-29T22:06:26.092Z,18.98
2022-11-29T22:08:53.911Z,15.52
2022-11-29T22:11:31.487Z,14.93
2022-11-29T22:14:14.194Z,16.58
2022-11-29T22:16:42.776Z,13.93
2022-11-29T22:19:12.302Z,17.33
2022-11-29T22:21:42.047Z,17.58
2022-11-29T22:24:10.676Z,18.25
2022-11-29T22:26:38.749Z,15.85
2022-11-29T22:29:07.511Z,15.73
2022-11-29T22:31:37.129Z,16.08
2022-11-29T22:34:04.910Z,16.65
2022-11-29T22:36:33.001Z,17.58
2022-11-29T22:39:02.357Z,17.67
2022-11-29T22:41:30.240Z,17.42
2022-11-29T22:43:58.104Z,19.83
2022-11-29T22:46:28.098Z,21.08
2022-11-29T22:48:57.582Z,22.60
2022-11-29T22:51:27.005Z,20.98
2022-11-29T22:53:56.938Z,21.17
2022-11-29T22:56:27.663Z,23.73
2022-11-29T22:58:55.731Z,19.15
2022-11-29T23:01:25.517Z,21.17
2022-11-29T23:03:55.039Z,20.05
2022-11-29T23:06:25.677Z,21.13
2022-11-29T23:08:56.219Z,21.17
2022-11-29T23:11:27.424Z,23.45
2022-11-29T23:13:55.527Z,21.00
2022-11-29T23:16:25.666Z,22.98
2022-11-29T23:18:54.515Z,23.23
2022-11-29T23:21:23.816Z,19.50
2022-11-29T23:23:56.370Z,20.67
2022-11-29T23:26:27.748Z,22.17
2022-11-29T23:28:55.979Z,21.60
2022-11-29T23:31:25.181Z,24.02
2022-11-29T23:33:52.987Z,21.50
2022-11-29T23:36:21.283Z,23.48
2022-11-29T23:38:49.791Z,22.23
2022-11-29T23:41:18.288Z,22.52
2022-11-29T23:43:47.488Z,22.35
2022-11-29T23:46:17.366Z,23.75
2022-11-29T23:48:45.672Z,23.77
2022-11-29T23:51:14.328Z,22.90
2022-11-29T23:53:43.099Z,23.20
2022-11-29T23:56:13.844Z,24.35
2022-11-29T23:58:42.550Z,25.50
